EDDF/FRA METAR and TAF weather

Enter ICAO airport designator
Station Type Date Time Source
EDDF METAR 2020/09/18 22:20 UTC NOAA

EDDF 182220Z 01009KT CAVOK 15/04 Q1021 NOSIG


Station Type Date Time Source
EDDF Decoded METAR 2020/09/18 22:20 UTC NOAA

Frankfurt / M-Flughafen, Germany (EDDF) 50-03N 008-36E 113M
Sep 18, 2020 - 06:20 PM EDT / 2020.09.18 2220 UTC
Wind: from the N (010 degrees) at 10 MPH (9 KT):0
Visibility: greater than 7 mile(s):0
Temperature: 59 F (15 C)
Dew Point: 39 F (4 C)
Relative Humidity: 47%
Pressure (altimeter): 30.15 in. Hg (1021 hPa)
ob: EDDF 182220Z 01009KT CAVOK 15/04 Q1021 NOSIG
cycle: 22

Station Type Date Time Source
EDDF TAF 2020/09/18 18:29 UTC NOAA

TAF EDDF 181700Z 1818/1924 05007KT CAVOK

Example: see airport list